Historyczne dane pomiarowe

Dodano dane terminowe – wersja testowa.

Dane z okresu 1951-2019

Wersja bazy: 1.32 [2019-02-07, lista zmian], aktualizacja planowana na 2019-03-07

Dane meteo z obszaru Polski uzyskane na podstawie danych udostępnionych przez Instytut Meteorologii i Gospodarki Wodnej – Państwowy Instytut Badawczy.

 

Wybierz Datę:    

       

TemperaturaWilgotnośćWiatrCiśnienieOpadyŚniegCzas trwania zjawisk
 Stacja t tx tn tng RH VA  wxwx mslp ppp RRR   cm mm wxwxwxwxwxwxwx
1985-01-14-12.9-11.0-17.7- 91.5- 8.0 0.7---- 1.0-- 18---------
1985-01-15-11.0 -6.0-15.4- 85.3- 8.0 1.0---- 0.0-- 18---------
1985-01-16-16.1 -8.1-19.1- 86.0- 0.3 0.0---- 0.0-- 18---------
1985-01-17-16.5 -9.4-23.0- 90.8- 8.0 0.0---- 0.0-- 17---------
1985-01-18 -6.3 -0.9-14.8- 64.5- 7.7 0.7---- 0.0-- 17---------
1985-01-19-15.9 -1.3-20.3- 88.0- 0.0 0.0---- 0.0-- 17---------
1985-01-20-17.3 -8.8-21.3- 87.5- 0.0 0.0---- 0.0-- 17---------
1985-01-21 -6.0 0.6-17.7- 79.3- 5.0 0.3---- 0.0-- 17---------
1985-01-22 0.0 6.8-11.5- 70.0- 7.3 1.3---- 0.0-- 16---------
1985-01-23 3.8 6.7 0.7- 88.5- 8.0 0.3---- 8.2-- 10---------
1985-01-24 -0.5 1.8 -3.7- 88.8- 6.0 0.3---- 0.2-- 13---------
1985-01-25 0.2 2.7 -5.4- 75.8- 7.3 3.7---- 0.0-- 13---------
1985-01-26 2.5 4.5 -0.3- 62.3- 6.3 2.7---- 0.0-- 12---------
1985-01-27 1.2 5.2 -2.1- 78.3- 7.3 2.3---- 4.0-- 8---------
1985-01-28 -3.0 -1.6 -5.5- 84.5- 5.0 1.3---- 0.0-- 9---------
1985-01-29 -4.9 4.2-13.7- 78.8- 1.7 0.3---- 0.0-- 9---------
1985-01-30 3.0 5.0 -0.5- 74.5- 5.0 3.0---- 0.0-- 9---------
1985-01-31 3.4 8.4 -0.3- 77.5- 7.3 1.3---- 0.4-- 6---------
1985-02-01 4.2 6.2 2.9- 80.3- 8.0 6.3---- 0.5------------
1985-02-02 5.3 7.1 3.9- 68.5- 7.3 4.7---- 4.5------------
1985-02-03 -1.9 4.7 -5.9- 80.8- 4.7 10.7---- 0.0-- 3---------
1985-02-04 -4.2 -1.3 -6.0- 66.8- 7.0 4.7---- 0.0-- 1---------
1985-02-05 -1.1 2.1 -4.7- 81.5- 8.0 1.7---- 1.6------------
1985-02-06 1.9 3.1 0.5- 90.0- 8.0 1.7---- 0.4------------
1985-02-07 -3.1 2.7 -6.6- 82.3- 3.3 3.3---- 0.7------------
1985-02-08 -9.1 -6.3-12.7- 79.0- 4.0 1.0---- 1.5-- 2---------
1985-02-09 -7.7 -5.5 -9.3- 90.3- 8.0 1.7---- 3.8-- 4---------
1985-02-10-12.0 -7.3-15.4- 87.8- 8.0 1.7---- 0.4-- 13---------
1985-02-11-19.3-13.9-22.4- 89.8- 8.0 0.7---- 0.0-- 11---------
1985-02-12-24.2-13.8-30.2- 73.8- 0.0 0.3---- 0.0-- 9---------
175.7 ms

 

Źródłem pochodzenia danych jest Instytut Meteorologii i Gospodarki Wodnej – Państwowy Instytut Badawczy. Dane Instytutu Meteorologii i Gospodarki Wodnej – Państwowego Instytutu Badawczego zostały przetworzone.

Dane źródłowe można odnaleźć na stronie https://dane.imgw.pl